Lake Fork, Idaho
Current Conditions -  °F | °C
As of 6:14 AM on Tuesday 21 Oct 2014 (Local Time) from KMYL Reporting Station
Light Rain Light Rain  
Wind Chill: 39°   Ceiling: 3300
Heat Index: 43°   Visibility: 10mi
Dew Point: 40°   Wind: 6mph
Humidity: 89%   Direction: 110°ESE
Pressure: 29.87"   Gusts: NA
Location:  44.83°N, 116.09°W
Report Text: KMYL 211214Z AUTO 11005KT 10SM -RA SCT027 OVC033 06/04 A2987 RMK AO2 P0002 T00610044
Loading
Personal Weather Stations






























Interactive Weather Map
Tropical Storm Tracking
New forecast layout! Learn more

10-Day Weather Forecast

Advertisements
Track Severe Weather on mobile